METAR Data
IDs: Format: Raw Decoded Include TAF

Data at: 0044 UTC 19 Nov 2018

PADM 190002Z AUTO 00000KT 10SM OVC012 01/00 A2944 RMK AO2 SLP978 60000 T00110000 10017 21006 53007 FZRANO
PADM 182302Z AUTO 09003KT 10SM OVC010 01/00 A2943 RMK AO2 CIG 008V013 SLP975 T00110000 FZRANO
PADM 182202Z AUTO 10008KT 8SM BKN012 OVC017 01/M01 A2942 RMK AO2 UPB2109E2139SNE2109 SLP972 P0000 T00061006 FZRANO
PADM 182122Z AUTO 08010KT 10SM UP BKN014 BKN039 OVC047 00/M01 A2941 RMK AO2 UPB09SNE09 P0000 FZRANO
PADM 182108Z AUTO 07011KT 9SM -SN SCT012 BKN039 OVC047 00/M01 A2941 RMK AO2 SLP968 P0000 60000 T00001011 53003 FZRANO
PADM 182102Z AUTO 06009KT 9SM -SN SCT012 BKN043 OVC050 00/M01 A2941 RMK AO2 P0000 FZRANO
PADM 182059Z AUTO 06009KT 9SM -SN SCT012 BKN021 OVC048 00/M01 A2941 RMK AO2 P0000 FZRANO
PADM 182010Z AUTO 05012KT 9SM -SN BKN012 OVC023 M01/M01 A2941 RMK AO2 P0000 FZRANO
PADM 182002Z AUTO 05010KT 9SM -SN SCT012 BKN020 OVC025 M01/M01 A2941 RMK AO2 SNB1910 SLP966 P0000 T10061011 FZRANO
PADM 181902Z AUTO 06011KT 10SM OVC010 M01/M01 A2940 RMK AO2 SNB1838E1853 SLP964 P0000 T10061011 FZRANO
PADM 181802Z AUTO 06010KT 10SM BKN012 OVC017 00/M01 A2938 RMK AO2 SLP959 60000 T00001011 10006 20000 53004 FZRANO
PADM 181754Z AUTO 06011KT 10SM BKN014 OVC020 00/M01 A2938 RMK AO2 FZRANO
PADM 181702Z AUTO 09012KT 10SM SCT019 OVC026 00/M01 A2937 RMK AO2 SLP955 T00001006 FZRANO
PADM 181602Z AUTO 09011KT 10SM BKN018 OVC024 00/M01 A2937 RMK AO2 SLP953 T00001006 FZRANO
PADM 181544Z AUTO 09013KT 10SM FEW013 BKN018 OVC026 00/M01 A2936 RMK AO2 FZRANO
PADM 181524Z AUTO 09013KT 10SM BKN013 BKN018 OVC025 00/M01 A2936 RMK AO2 FZRANO
PADM 181502Z AUTO 08015KT 10SM BKN017 BKN023 OVC050 00/M01 A2936 RMK AO2 UPB1435E1452 SLP950 P0000 60000 T00001006 50003 FZRANO
PADM 181440Z AUTO 09015KT 10SM UP SCT017 BKN023 OVC060 00/M01 A2936 RMK AO2 UPB35 P0000 FZRANO
PADM 181408Z AUTO 08013KT 10SM FEW023 OVC030 00/M01 A2936 RMK AO2 SLP951 T00001006 FZRANO
PADM 181402Z AUTO 08012KT 10SM FEW017 SCT023 OVC030 01/00 A2936 RMK AO2 FZRANO
PADM 181351Z AUTO 08011KT 10SM FEW012 OVC021 01/M01 A2936 RMK AO2 FZRANO
PADM 181302Z AUTO 08014KT 10SM OVC014 01/M01 A2936 RMK AO2 SLP950 T00061006 FZRANO
PADM 181239Z AUTO 08015KT 10SM BKN014 OVC021 01/M01 A2935 RMK AO2 FZRANO
PADM 181202Z AUTO 08013KT 10SM OVC027 01/M01 A2935 RMK AO2 RAE1148 SLP947 P0000 60004 70004 T00061006 10006 20006 50000 FZRANO
PADM 181102Z AUTO 07015KT 10SM -RA OVC025 01/M01 A2934 RMK AO2 RAB1009 SLP946 P0000 T00061006 FZRANO
PADM 181002Z AUTO 08016KT 10SM OVC021 01/M01 A2935 RMK AO2 UPE0924 SLP946 P0000 T00061006 FZRANO
PADM 180912Z AUTO 08016KT 10SM UP BKN026 OVC032 01/M01 A2935 RMK AO2 RAE0829UPB0829 SLP946 P0000 60004 T00061006 53000 FZRANO
PADM 180902Z AUTO 07015KT 10SM UP BKN022 OVC032 01/M01 A2935 RMK AO2 RAE0829UPB0829 P0000 FZRANO
PADM 180848Z AUTO 07013KT 10SM UP OVC030 01/M01 A2935 RMK AO2 RAE29UPB29 P0000 FZRANO
PADM 180802Z AUTO 07013KT 10SM -RA OVC023 01/M01 A2934 RMK AO2 UPE0714RAB0714 SLP944 P0001 T00061006 400060006 FZRANO
PADM 180702Z AUTO 08019G24KT 8SM UP OVC027 01/M01 A2934 RMK AO2 RAE0656UPB0656 SLP942 P0003 T00061006 FZRANO
PADM 180640Z AUTO 07014G23KT 9SM RA OVC029 01/M01 A2934 RMK AO2 P0002 FZRANO
PADM 180602Z AUTO 06015KT 10SM -RA OVC031 01/M01 A2934 RMK AO2 P0000 FZRANO
PADM 180520Z AUTO 06014KT 10SM -RA OVC029 01/M01 A2934 RMK AO2 P0000 FZRANO
PADM 180502Z AUTO 05014KT 10SM -RA BKN031 OVC036 01/M01 A2934 RMK AO2 UPE0408RAB0408 SLP945 P0000 T00111006 FZRANO
PADM 180402Z AUTO 07014KT 10SM UP OVC035 01/M01 A2935 RMK AO2 RAE0352UPB0352 SLP946 P0000 T00111006 FZRANO
PADM 180302Z AUTO 07016KT 10SM -RA BKN065 OVC080 01/M01 A2935 RMK AO2 SLP948 P0000 60000 T00111006 56014 FZRANO
PADM 180202Z AUTO 07010KT 10SM -RA BKN042 OVC050 02/00 A2936 RMK AO2 RAB0121 SLP951 P0000 T00170000 FZRANO
PADM 180102Z AUTO 07012KT 10SM SCT035 OVC090 02/M01 A2937 RMK AO2 SLP954 T00171006 FZRANO
PADM 180002Z AUTO 06008KT 10SM FEW090 BKN120 01/M01 A2939 RMK AO2 SLP960 60000 T00111011 10022 20006 57009 FZRANO
PADM 172302Z AUTO 08010KT 10SM SCT070 SCT090 BKN110 02/M01 A2940 RMK AO2 RAB2219E2254 SLP964 P0000 T00221006 FZRANO
PADM 172202Z AUTO 08015KT 10SM SCT090 OVC110 02/M01 A2941 RMK AO2 SLP968 T00221006 FZRANO
PADM 172102Z AUTO 06014KT 10SM OVC033 02/M01 A2942 RMK AO2 SLP970 T00171006 57010 FZRANO
PADM 171902Z AUTO 07015KT 10SM OVC031 01/M02 A2943 RMK AO2 SLP976 T00061017 FZRANO
PADM 171802Z AUTO 07013KT 10SM OVC033 01/M02 A2945 RMK AO2 SLP982 T00111017 10017 20011 55003 FZRANO
PADM 171741Z AUTO 08015KT 10SM OVC031 01/M02 A2945 RMK AO2 FZRANO
PADM 171702Z AUTO 07012KT 10SM OVC029 01/M02 A2946 RMK AO2 SLP984 T00111017 FZRANO
PADM 171639Z AUTO 06016KT 10SM BKN029 BKN035 OVC085 01/M02 A2945 RMK AO2 FZRANO
PADM 171613Z AUTO 07017KT 10SM SCT030 OVC035 01/M02 A2945 RMK AO2 SLP981 T00111017 FZRANO
PADM 171602Z AUTO 07016KT 10SM BKN031 OVC035 01/M02 A2945 RMK AO2 FZRANO
PADM 171502Z AUTO 06011KT 10SM OVC029 01/M01 A2947 RMK AO2 SLP987 T00111011 56010 FZRANO
PADM 171402Z AUTO 07014G22KT 10SM OVC021 02/M01 A2948 RMK AO2 SLP993 T00171011 FZRANO
PADM 171302Z AUTO 08019KT 10SM OVC026 02/M01 A2949 RMK AO2 SLP993 T00171011 FZRANO